Time;durP1;ratioP1;P1;durP2;ratioP2;P2;SDS_P1;SDS_P2;PMS_P1;PMS_P2;Temp;Humidity;BMP_temperature;BMP_pressure;BME280_temperature;BME280_humidity;BME280_pressure;Samples;Min_cycle;Max_cycle;Signal;HPM_P1;HPM_P2
2022/02/19 00:03:54;;;;;;;15.78;9.18;;;;;;;6.63;62.19;93629.05;1617274;87;21551;-50
2022/02/19 00:06:21;;;;;;;12.98;7.33;;;;;;;6.69;61.49;93628.61;1598482;87;21076;-50
2022/02/19 00:08:47;;;;;;;10.55;6.30;;;;;;;6.76;61.33;93634.41;1616575;88;21680;-50
2022/02/19 00:11:16;;;;;;;12.85;7.45;;;;;;;6.82;61.08;93642.17;1607353;87;21030;-49
2022/02/19 00:13:42;;;;;;;16.37;7.50;;;;;;;6.87;60.98;93660.73;1590588;89;21170;-51
2022/02/19 00:16:10;;;;;;;10.75;6.35;;;;;;;6.88;60.79;93656.17;1601320;87;21050;-49
2022/02/19 00:18:37;;;;;;;7.78;5.42;;;;;;;6.92;60.76;93644.48;1593191;88;21071;-49
2022/02/19 00:21:04;;;;;;;10.68;6.50;;;;;;;6.98;60.87;93648.77;1596724;88;21488;-49
2022/02/19 00:23:31;;;;;;;11.68;7.25;;;;;;;7.05;60.82;93638.94;1588987;87;21056;-52
2022/02/19 00:25:57;;;;;;;15.48;8.20;;;;;;;7.09;60.65;93619.20;1567282;90;21884;-49
2022/02/19 00:28:25;;;;;;;14.93;8.20;;;;;;;7.12;60.81;93618.28;1587850;88;21054;-50
2022/02/19 00:30:52;;;;;;;9.90;5.85;;;;;;;7.11;60.62;93628.30;1601653;88;21612;-49
2022/02/19 00:33:23;;;;;;;16.15;8.25;;;;;;;7.13;60.51;93618.44;1604278;88;21073;-50
2022/02/19 00:35:50;;;;;;;13.38;7.22;;;;;;;7.15;60.46;93617.38;1579088;89;21055;-49
2022/02/19 00:38:17;;;;;;;18.23;8.85;;;;;;;7.14;60.43;93604.92;1603716;89;21920;-49
2022/02/19 00:44:08;;;;;;;13.60;8.18;;;;;;;7.22;60.42;93582.14;1782540;78;26392;-49
2022/02/19 00:46:37;;;;;;;11.50;7.87;;;;;;;7.20;60.34;93586.72;1722384;81;21108;-50
2022/02/19 00:49:04;;;;;;;10.78;6.78;;;;;;;7.20;60.27;93574.41;1727566;82;21169;-49
2022/02/19 00:51:31;;;;;;;12.03;8.33;;;;;;;7.19;60.42;93578.34;1740154;81;20959;-48
2022/02/19 00:53:59;;;;;;;19.37;10.05;;;;;;;7.17;60.55;93560.25;1722877;82;20954;-50
2022/02/19 00:56:26;;;;;;;23.15;9.70;;;;;;;7.12;60.66;93560.12;1725461;81;21015;-50
2022/02/19 00:58:52;;;;;;;23.30;12.58;;;;;;;7.07;60.82;93557.22;1732309;81;21476;-49
2022/02/19 01:01:22;;;;;;;24.10;12.60;;;;;;;7.04;60.90;93544.45;1718075;82;21223;-48
2022/02/19 01:03:54;;;;;;;17.40;11.22;;;;;;;7.00;60.92;93547.92;1727455;81;21005;-49
2022/02/19 01:06:21;;;;;;;18.70;10.08;;;;;;;7.00;60.93;93558.86;1743607;81;20963;-49
2022/02/19 01:08:52;;;;;;;19.23;9.38;;;;;;;7.03;60.67;93566.92;1730798;81;20963;-49
2022/02/19 01:11:19;;;;;;;12.55;7.58;;;;;;;7.06;60.54;93565.27;1722878;81;21007;-50
2022/02/19 01:13:48;;;;;;;13.40;7.97;;;;;;;7.07;60.40;93538.08;1722296;82;21167;-49
2022/02/19 01:16:15;;;;;;;11.90;7.12;;;;;;;7.09;60.17;93539.13;1728525;81;21022;-49
2022/02/19 01:18:44;;;;;;;12.75;7.10;;;;;;;7.10;60.17;93540.64;1720663;82;21078;-48
2022/02/19 01:21:11;;;;;;;9.20;6.47;;;;;;;7.08;60.14;93532.14;1717901;82;21185;-49
2022/02/19 01:23:39;;;;;;;13.70;8.48;;;;;;;7.07;60.15;93512.10;1741424;81;20994;-48
2022/02/19 01:26:06;;;;;;;20.27;8.90;;;;;;;7.01;60.44;93520.73;1733715;81;21200;-49
2022/02/19 01:28:34;;;;;;;12.60;7.35;;;;;;;6.93;60.62;93508.59;1704955;82;20957;-50
2022/02/19 01:31:01;;;;;;;28.12;11.33;;;;;;;6.91;60.61;93503.55;1707296;81;21465;-50
2022/02/19 01:33:28;;;;;;;8.10;5.05;;;;;;;6.91;60.47;93500.08;1727972;81;21090;-50
2022/02/19 01:35:55;;;;;;;10.38;5.83;;;;;;;7.01;59.78;93511.16;1719347;82;21671;-50
2022/02/19 01:38:24;;;;;;;9.20;5.50;;;;;;;7.25;59.46;93507.39;1723637;82;21121;-50
2022/02/19 01:40:52;;;;;;;8.85;5.25;;;;;;;7.41;58.77;93512.56;1743261;82;21014;-49
2022/02/19 01:43:18;;;;;;;9.45;5.58;;;;;;;7.54;58.48;93513.92;1714725;82;21420;-51
2022/02/19 01:45:49;;;;;;;11.30;5.85;;;;;;;7.65;58.02;93507.98;1696146;83;21030;-50
2022/02/19 01:48:16;;;;;;;8.50;5.12;;;;;;;7.74;57.74;93504.62;1690282;83;21012;-51
2022/02/19 01:50:43;;;;;;;13.62;7.83;;;;;;;7.80;57.48;93500.06;1695269;83;21143;-49
2022/02/19 01:53:10;;;;;;;10.20;6.58;;;;;;;7.83;57.40;93516.94;1692256;83;21003;-48
2022/02/19 01:55:42;;;;;;;13.43;6.83;;;;;;;7.85;56.91;93506.28;1675817;83;21040;-49
2022/02/19 01:58:16;;;;;;;8.20;5.25;;;;;;;7.92;56.92;93497.73;1665807;83;21000;-49
2022/02/19 02:00:45;;;;;;;10.88;5.97;;;;;;;7.96;56.63;93484.67;1655574;83;21056;-49
2022/02/19 02:03:19;;;;;;;10.25;4.95;;;;;;;7.96;56.56;93488.78;1627841;83;21183;-50
2022/02/19 02:05:48;;;;;;;6.85;5.55;;;;;;;8.00;56.17;93492.70;1710903;83;21177;-49
2022/02/19 02:08:16;;;;;;;11.40;5.78;;;;;;;8.08;55.80;93500.13;1694674;83;21504;-50
2022/02/19 02:10:46;;;;;;;11.80;5.58;;;;;;;8.15;55.84;93482.02;1695501;83;21087;-50
2022/02/19 02:13:15;;;;;;;6.45;4.45;;;;;;;8.16;55.23;93477.28;1698977;83;21535;-49
2022/02/19 02:15:42;;;;;;;8.08;5.85;;;;;;;8.19;54.77;93496.34;1685662;83;21445;-49
2022/02/19 02:18:17;;;;;;;10.08;5.10;;;;;;;8.21;54.74;93481.56;1701926;83;21024;-49
2022/02/19 02:20:44;;;;;;;10.53;5.67;;;;;;;8.19;54.82;93484.61;1679415;83;21162;-49
2022/02/19 02:23:14;;;;;;;11.65;5.97;;;;;;;8.17;54.61;93484.28;1689041;83;21000;-49
2022/02/19 02:25:43;;;;;;;7.47;5.53;;;;;;;8.17;54.40;93493.87;1698256;83;21445;-48
2022/02/19 02:28:10;;;;;;;9.23;4.87;;;;;;;8.17;54.12;93477.44;1684557;83;21159;-49
2022/02/19 02:30:39;;;;;;;11.00;5.45;;;;;;;8.21;53.57;93482.94;1703687;83;21013;-50
2022/02/19 02:33:17;;;;;;;6.78;5.10;;;;;;;8.26;53.17;93472.71;1687391;83;21024;-48
2022/02/19 02:35:51;;;;;;;7.37;5.25;;;;;;;8.32;52.98;93466.77;1711529;83;21063;-50
2022/02/19 02:38:21;;;;;;;8.43;5.40;;;;;;;8.38;52.87;93481.94;1678636;83;20977;-49
2022/02/19 02:40:48;;;;;;;9.13;5.47;;;;;;;8.39;52.81;93490.31;1697106;83;21171;-49
2022/02/19 02:43:16;;;;;;;12.40;5.92;;;;;;;8.37;52.55;93490.79;1664566;83;21217;-49
2022/02/19 02:45:44;;;;;;;9.35;5.58;;;;;;;8.36;52.54;93494.75;1704967;83;21020;-49
2022/02/19 02:48:12;;;;;;;8.05;5.25;;;;;;;8.37;52.39;93488.05;1699591;83;20958;-50
2022/02/19 02:50:40;;;;;;;11.63;5.53;;;;;;;8.38;52.17;93493.67;1691868;83;20971;-50
2022/02/19 02:53:08;;;;;;;12.53;5.95;;;;;;;8.42;51.91;93485.30;1660212;84;21114;-49
2022/02/19 02:55:36;;;;;;;9.28;6.22;;;;;;;8.48;51.73;93484.80;1698520;83;20972;-49
2022/02/19 02:58:03;;;;;;;10.75;5.28;;;;;;;8.50;51.44;93487.24;1648500;84;21076;-49
2022/02/19 03:00:31;;;;;;;11.83;6.70;;;;;;;8.54;51.02;93486.45;1659718;83;21011;-51
2022/02/19 03:02:58;;;;;;;8.05;5.67;;;;;;;8.58;50.99;93485.66;1686331;83;21535;-50
2022/02/19 03:05:25;;;;;;;12.95;6.55;;;;;;;8.59;50.71;93474.11;1666363;83;21150;-50
2022/02/19 03:07:52;;;;;;;9.68;5.80;;;;;;;8.59;50.51;93459.77;1683051;83;20977;-49
2022/02/19 03:10:19;;;;;;;8.45;4.92;;;;;;;8.59;50.50;93466.63;1652064;83;20992;-51
2022/02/19 03:12:48;;;;;;;9.08;4.97;;;;;;;8.60;50.35;93462.66;1684840;83;21053;-49
2022/02/19 03:15:18;;;;;;;13.05;7.12;;;;;;;8.61;50.09;93479.25;1698384;84;21567;-49
2022/02/19 03:17:46;;;;;;;8.68;5.92;;;;;;;8.63;49.93;93464.47;1680134;83;21175;-50
2022/02/19 03:20:17;;;;;;;8.13;4.78;;;;;;;8.65;49.88;93478.46;1691627;83;21110;-50
2022/02/19 03:22:46;;;;;;;14.93;7.62;;;;;;;8.69;49.58;93484.55;1690260;83;21099;-49
2022/02/19 03:25:14;;;;;;;14.80;7.47;;;;;;;8.77;49.50;93478.86;1671484;83;21140;-50
2022/02/19 03:27:42;;;;;;;14.63;8.45;;;;;;;8.78;49.26;93468.04;1684778;83;21463;-48
2022/02/19 03:30:12;;;;;;;11.83;8.13;;;;;;;8.79;49.35;93463.33;1682580;83;21183;-49
2022/02/19 03:32:39;;;;;;;11.53;6.55;;;;;;;8.78;49.03;93463.19;1662546;84;21519;-49
2022/02/19 03:35:08;;;;;;;13.05;7.67;;;;;;;8.79;48.84;93451.73;1706780;83;21024;-50
2022/02/19 03:37:36;;;;;;;6.78;4.97;;;;;;;8.78;48.02;93439.25;1705824;83;21084;-50
2022/02/19 03:40:06;;;;;;;10.45;5.75;;;;;;;8.85;47.73;93459.48;1694150;83;21091;-54
2022/02/19 03:42:37;;;;;;;6.00;4.80;;;;;;;8.93;47.41;93475.72;1697357;83;21196;-53
2022/02/19 03:45:08;;;;;;;6.65;5.58;;;;;;;8.98;47.33;93470.95;1712066;83;21047;-50
2022/02/19 03:47:37;;;;;;;21.77;14.68;;;;;;;8.98;47.42;93462.13;1630972;86;21127;-56
2022/02/19 03:50:07;;;;;;;49.98;28.15;;;;;;;8.95;47.48;93468.55;1691134;83;21527;-50
2022/02/19 03:52:37;;;;;;;207.92;133.10;;;;;;;8.92;47.33;93465.98;1712868;83;21070;-53
2022/02/19 03:55:05;;;;;;;253.52;154.55;;;;;;;8.90;47.45;93482.14;1694251;83;21815;-49
2022/02/19 03:57:33;;;;;;;114.45;83.00;;;;;;;8.92;47.33;93493.41;1701381;83;21444;-50
2022/02/19 04:00:00;;;;;;;52.35;46.83;;;;;;;8.92;47.01;93512.59;1702088;83;20972;-48
2022/02/19 04:02:26;;;;;;;15.80;13.93;;;;;;;8.91;47.03;93506.97;1690231;83;21075;-50
2022/02/19 04:04:54;;;;;;;25.23;19.98;;;;;;;8.94;46.86;93497.20;1662636;83;21130;-50
2022/02/19 04:07:22;;;;;;;62.60;55.95;;;;;;;8.95;46.82;93503.43;1697586;83;21172;-50
2022/02/19 04:09:56;;;;;;;37.60;28.15;;;;;;;8.96;47.11;93513.95;1705332;83;21071;-51
2022/02/19 04:12:25;;;;;;;38.40;32.08;;;;;;;8.99;46.73;93536.92;1686312;83;21536;-50
2022/02/19 04:14:53;;;;;;;28.30;25.08;;;;;;;9.03;46.56;93524.56;1697281;83;21474;-49
2022/02/19 04:17:22;;;;;;;25.12;22.52;;;;;;;9.11;46.65;93526.34;1673750;84;21472;-50
2022/02/19 04:19:50;;;;;;;23.25;20.77;;;;;;;9.10;46.83;93534.43;1690124;83;21962;-50
2022/02/19 04:22:18;;;;;;;7.60;5.05;;;;;;;9.07;46.63;93549.83;1681544;83;21044;-50
2022/02/19 04:24:46;;;;;;;12.47;7.95;;;;;;;9.08;46.54;93531.40;1658018;84;21111;-49
2022/02/19 04:27:15;;;;;;;13.60;8.15;;;;;;;9.08;46.71;93539.63;1696249;83;21083;-50
2022/02/19 04:29:42;;;;;;;13.50;7.60;;;;;;;9.09;46.48;93537.03;1700926;83;21003;-49
2022/02/19 04:32:10;;;;;;;18.87;12.07;;;;;;;9.07;46.55;93529.88;1642778;83;21043;-49
2022/02/19 04:34:38;;;;;;;11.55;6.15;;;;;;;9.08;46.95;93519.05;1684984;83;21097;-51
2022/02/19 04:37:05;;;;;;;12.68;8.28;;;;;;;9.07;46.75;93532.63;1698252;83;21075;-50
2022/02/19 04:39:34;;;;;;;9.90;5.60;;;;;;;9.04;46.76;93510.25;1702670;83;21094;-50
2022/02/19 04:42:01;;;;;;;10.28;5.97;;;;;;;9.00;46.82;93524.13;1696142;83;21028;-49
2022/02/19 04:44:28;;;;;;;11.73;6.30;;;;;;;8.98;46.31;93524.44;1679945;83;22083;-51
2022/02/19 04:46:55;;;;;;;16.70;7.55;;;;;;;9.00;46.72;93543.92;1706230;83;21079;-50
2022/02/19 04:49:23;;;;;;;9.98;5.20;;;;;;;8.96;46.99;93545.48;1673320;83;21036;-49
2022/02/19 04:51:50;;;;;;;8.05;5.22;;;;;;;8.92;46.82;93533.16;1706106;83;20996;-52
2022/02/19 04:54:17;;;;;;;9.13;6.15;;;;;;;8.91;47.01;93543.36;1694638;83;21011;-51
2022/02/19 04:56:44;;;;;;;13.32;6.78;;;;;;;8.89;47.02;93538.22;1683676;83;21269;-50
2022/02/19 04:59:11;;;;;;;9.83;5.85;;;;;;;8.87;47.22;93537.15;1686085;83;20952;-50
2022/02/19 05:01:40;;;;;;;10.82;6.37;;;;;;;8.84;47.50;93536.09;1687213;83;21573;-50
2022/02/19 05:04:09;;;;;;;17.27;9.70;;;;;;;8.80;47.46;93519.68;1680100;83;21492;-50
2022/02/19 05:06:50;;;;;;;28.42;13.13;;;;;;;8.76;47.74;93526.70;1692678;83;21026;-49
2022/02/19 05:09:17;;;;;;;14.07;8.00;;;;;;;8.71;47.82;93528.70;1678850;83;21220;-50
2022/02/19 05:11:48;;;;;;;8.90;6.60;;;;;;;8.69;47.70;93531.16;1678347;84;21517;-49
2022/02/19 05:14:15;;;;;;;10.85;6.33;;;;;;;8.68;47.59;93532.38;1685655;83;21019;-50
2022/02/19 05:16:43;;;;;;;10.45;6.70;;;;;;;8.71;47.55;93538.30;1677807;83;21017;-51
2022/02/19 05:19:12;;;;;;;14.30;7.40;;;;;;;8.74;47.63;93540.11;1686880;83;21152;-50
2022/02/19 05:21:40;;;;;;;17.60;8.40;;;;;;;8.75;47.82;93547.71;1669031;83;21932;-50
2022/02/19 05:24:08;;;;;;;17.02;8.55;;;;;;;8.73;47.99;93549.56;1688254;83;21011;-50
2022/02/19 05:26:40;;;;;;;13.08;8.15;;;;;;;8.71;48.15;93535.56;1683749;84;21021;-50
2022/02/19 05:29:08;;;;;;;16.67;8.95;;;;;;;8.72;48.27;93539.05;1676383;83;20980;-51
2022/02/19 05:31:36;;;;;;;27.02;13.88;;;;;;;8.76;48.36;93545.89;1677786;83;21028;-51
2022/02/19 05:34:07;;;;;;;37.98;18.10;;;;;;;8.78;48.39;93546.18;1690691;83;21163;-51
2022/02/19 05:36:34;;;;;;;19.82;10.98;;;;;;;8.83;48.38;93574.33;1691924;83;21022;-50
2022/02/19 05:39:02;;;;;;;62.15;30.68;;;;;;;8.89;48.38;93556.05;1658420;83;20972;-51
2022/02/19 05:41:32;;;;;;;29.00;14.30;;;;;;;8.94;48.49;93560.88;1682284;84;21029;-51
2022/02/19 05:44:04;;;;;;;24.70;13.28;;;;;;;8.96;48.51;93557.06;1696355;83;21456;-50
2022/02/19 05:46:33;;;;;;;24.43;12.82;;;;;;;8.98;48.75;93560.09;1692046;83;20958;-51
2022/02/19 05:49:00;;;;;;;19.95;12.23;;;;;;;8.98;48.83;93570.47;1702315;83;21598;-49
2022/02/19 05:51:31;;;;;;;14.53;7.17;;;;;;;8.98;48.95;93577.33;1686380;83;21016;-50
2022/02/19 05:54:00;;;;;;;27.48;17.20;;;;;;;8.97;49.17;93581.89;1659030;84;21028;-50
2022/02/19 05:56:28;;;;;;;17.35;9.78;;;;;;;8.99;49.39;93584.92;1694850;83;21159;-50
2022/02/19 05:58:57;;;;;;;11.80;7.67;;;;;;;9.00;49.53;93588.59;1692251;83;21547;-49
2022/02/19 06:01:24;;;;;;;19.62;12.82;;;;;;;9.00;49.96;93584.47;1689521;83;21503;-51
2022/02/19 06:03:53;;;;;;;14.43;9.25;;;;;;;9.03;50.41;93582.80;1693227;83;20980;-52
2022/02/19 06:06:21;;;;;;;16.32;10.43;;;;;;;9.02;50.49;93577.13;1691898;83;21003;-52
2022/02/19 06:08:50;;;;;;;12.53;6.50;;;;;;;9.02;50.60;93571.05;1704204;83;21020;-50
2022/02/19 06:11:17;;;;;;;13.85;7.92;;;;;;;9.03;50.84;93585.53;1656737;83;21103;-52
2022/02/19 06:14:04;;;;;;;17.65;10.38;;;;;;;8.99;50.86;93584.92;1689154;83;21024;-50
2022/02/19 06:16:33;;;;;;;11.30;7.30;;;;;;;9.01;50.78;93588.73;1702577;83;20964;-51
2022/02/19 06:19:02;;;;;;;12.93;8.13;;;;;;;9.00;50.87;93572.12;1686848;83;21158;-51
2022/02/19 06:21:30;;;;;;;13.15;8.23;;;;;;;9.00;51.00;93591.92;1696006;83;20976;-52
2022/02/19 06:23:57;;;;;;;12.70;9.23;;;;;;;8.96;51.00;93579.00;1700043;83;21140;-52
2022/02/19 06:26:25;;;;;;;17.37;9.03;;;;;;;8.96;51.18;93582.52;1707157;83;21068;-51
2022/02/19 06:28:54;;;;;;;9.98;7.10;;;;;;;8.93;51.42;93575.22;1666741;83;21124;-52
2022/02/19 06:31:21;;;;;;;18.23;10.10;;;;;;;8.91;51.39;93570.05;1679474;83;20989;-51
2022/02/19 06:33:48;;;;;;;15.50;9.40;;;;;;;8.89;51.50;93571.87;1710469;83;21037;-51
2022/02/19 06:36:18;;;;;;;10.88;8.35;;;;;;;8.92;51.43;93575.67;1713459;83;21176;-53
2022/02/19 06:38:47;;;;;;;9.78;7.83;;;;;;;8.94;51.52;93569.11;1696688;83;21092;-53
2022/02/19 06:41:16;;;;;;;13.65;9.05;;;;;;;8.95;51.62;93580.23;1691082;83;21112;-57
2022/02/19 06:43:59;;;;;;;9.83;7.17;;;;;;;8.96;51.54;93579.00;1670361;83;20980;-54
2022/02/19 06:46:28;;;;;;;25.48;13.45;;;;;;;8.96;51.55;93573.52;1689386;83;21014;-52
2022/02/19 06:48:56;;;;;;;17.80;9.30;;;;;;;8.96;51.60;93581.14;1708546;83;21149;-53
2022/02/19 06:51:28;;;;;;;17.30;8.58;;;;;;;8.95;51.47;93577.48;1684348;83;20957;-55
2022/02/19 06:53:56;;;;;;;18.37;10.05;;;;;;;8.96;51.84;93588.60;1694689;83;21056;-50
2022/02/19 06:56:24;;;;;;;12.05;6.80;;;;;;;8.92;51.81;93565.45;1712605;83;21020;-52
2022/02/19 06:58:52;;;;;;;11.93;7.70;;;;;;;8.90;52.10;93569.27;1674324;83;21106;-51
2022/02/19 07:01:19;;;;;;;14.70;9.40;;;;;;;8.90;52.35;93579.50;1695274;83;21082;-51
2022/02/19 07:03:46;;;;;;;13.62;8.53;;;;;;;8.88;52.41;93573.09;1687846;83;21539;-52
2022/02/19 07:06:33;;;;;;;15.80;8.15;;;;;;;8.86;52.85;93573.42;1662118;84;20976;-51
2022/02/19 07:08:59;;;;;;;15.72;9.85;;;;;;;8.85;53.03;93579.36;1708354;83;21442;-58
2022/02/19 07:11:26;;;;;;;17.57;9.05;;;;;;;8.84;53.19;93595.05;1687089;83;21056;-51
2022/02/19 07:13:54;;;;;;;18.65;11.68;;;;;;;8.81;53.55;93600.71;1711972;83;21136;-51
2022/02/19 07:16:23;;;;;;;13.70;8.73;;;;;;;8.79;53.91;93591.57;1692971;83;21170;-53
2022/02/19 07:18:53;;;;;;;17.07;9.65;;;;;;;8.76;54.02;93587.02;1651933;84;21254;-51
2022/02/19 07:21:22;;;;;;;21.15;12.45;;;;;;;8.70;54.18;93612.18;1677378;83;21166;-55
2022/02/19 07:23:49;;;;;;;17.70;11.50;;;;;;;8.68;54.35;93602.29;1710025;83;21000;-52
2022/02/19 07:26:18;;;;;;;15.20;9.83;;;;;;;8.66;54.18;93599.22;1679892;83;21171;-51
2022/02/19 07:28:46;;;;;;;13.28;9.55;;;;;;;8.69;54.37;93605.78;1708597;83;21082;-52
2022/02/19 07:31:13;;;;;;;23.25;14.93;;;;;;;8.68;54.51;93612.48;1702938;83;20968;-54
2022/02/19 07:33:40;;;;;;;26.05;14.00;;;;;;;8.67;54.71;93624.07;1682676;83;21032;-50
2022/02/19 07:36:09;;;;;;;23.75;12.55;;;;;;;8.69;54.62;93598.33;1702007;83;21055;-53
2022/02/19 07:38:37;;;;;;;14.87;9.85;;;;;;;8.70;54.52;93630.59;1692352;83;21261;-51
2022/02/19 07:41:03;;;;;;;14.93;8.35;;;;;;;8.74;54.39;93633.93;1691496;83;21000;-51
2022/02/19 07:43:32;;;;;;;22.55;12.63;;;;;;;8.73;54.43;93633.19;1696983;83;20992;-50
2022/02/19 07:46:15;;;;;;;17.70;8.80;;;;;;;8.73;54.76;93646.89;1703385;84;21060;-52
2022/02/19 07:58:17;;;;;;;12.50;8.83;;;;;;;8.67;54.79;93652.86;1683373;83;21642;-52
2022/02/19 07:59:57;;;;;;;13.65;9.28;;;;;;;8.68;55.38;93674.16;1686080;84;21091;-50
2022/02/19 08:02:23;;;;;;;12.85;7.87;;;;;;;8.68;55.39;93673.57;1701193;83;21071;-52
2022/02/19 08:04:51;;;;;;;9.65;7.28;;;;;;;8.66;55.59;93669.75;1698006;83;21110;-51
2022/02/19 08:07:20;;;;;;;28.85;15.90;;;;;;;8.63;55.61;93676.91;1663338;83;20948;-52
2022/02/19 08:09:48;;;;;;;14.23;9.93;;;;;;;8.63;55.84;93691.98;1686420;83;21092;-51
2022/02/19 08:12:15;;;;;;;16.23;8.95;;;;;;;8.63;55.81;93697.47;1673877;83;21108;-51
2022/02/19 08:14:43;;;;;;;16.48;8.23;;;;;;;8.64;55.86;93705.09;1681811;83;20970;-51
2022/02/19 08:17:10;;;;;;;13.98;7.58;;;;;;;8.61;56.08;93710.88;1676990;83;21147;-52
2022/02/19 08:19:37;;;;;;;17.80;10.75;;;;;;;8.59;56.03;93718.05;1678978;83;21024;-50
2022/02/19 08:22:06;;;;;;;15.25;8.28;;;;;;;8.57;56.13;93714.39;1713235;83;21551;-53
2022/02/19 08:24:33;;;;;;;13.85;8.63;;;;;;;8.61;56.17;93722.47;1676646;83;20981;-51
2022/02/19 08:26:59;;;;;;;12.82;6.05;;;;;;;8.62;56.28;93720.62;1672069;83;20976;-52
2022/02/19 08:29:26;;;;;;;12.73;7.95;;;;;;;8.64;55.97;93721.55;1665254;84;21743;-51
2022/02/19 08:31:54;;;;;;;13.05;8.03;;;;;;;8.64;56.13;93707.22;1693934;83;21444;-51
2022/02/19 08:34:20;;;;;;;12.35;8.98;;;;;;;8.64;56.17;93706.47;1689205;83;21409;-53
2022/02/19 08:36:47;;;;;;;10.15;7.50;;;;;;;8.66;56.21;93725.95;1635457;84;21492;-53
2022/02/19 08:39:15;;;;;;;12.55;8.03;;;;;;;8.68;55.94;93719.41;1692556;83;21052;-51
2022/02/19 08:41:47;;;;;;;13.70;9.55;;;;;;;8.65;55.92;93748.48;1673830;84;21849;-52
2022/02/19 08:44:11;;;;;;;14.05;8.98;;;;;;;8.62;55.78;93743.92;1695299;83;21118;-50
2022/02/19 08:46:39;;;;;;;11.48;7.05;;;;;;;8.61;55.99;93734.17;1691188;83;21087;-52
2022/02/19 08:49:06;;;;;;;14.87;10.45;;;;;;;8.59;55.87;93742.10;1686701;83;21040;-52
2022/02/19 08:51:32;;;;;;;12.50;8.58;;;;;;;8.56;55.95;93740.28;1693772;83;21021;-52
2022/02/19 08:53:59;;;;;;;12.37;8.43;;;;;;;8.55;55.73;93742.87;1698645;83;21082;-51
2022/02/19 08:56:26;;;;;;;12.33;8.40;;;;;;;8.56;55.66;93753.98;1705812;83;21225;-52
2022/02/19 08:58:53;;;;;;;14.33;7.95;;;;;;;8.57;55.21;93751.98;1678120;83;21658;-53
2022/02/19 09:01:19;;;;;;;15.10;8.33;;;;;;;8.56;55.12;93759.47;1699188;83;20969;-53
2022/02/19 09:03:48;;;;;;;12.90;7.90;;;;;;;8.54;55.10;93761.91;1706107;83;21023;-52
2022/02/19 09:06:15;;;;;;;9.63;6.50;;;;;;;8.54;55.34;93764.65;1695843;83;21182;-51
2022/02/19 09:08:41;;;;;;;10.48;7.12;;;;;;;8.56;55.36;93769.66;1690847;83;21012;-51
2022/02/19 09:11:09;;;;;;;7.83;6.50;;;;;;;8.52;55.20;93779.42;1703019;83;21499;-53
2022/02/19 09:13:37;;;;;;;11.22;7.03;;;;;;;8.52;55.27;93782.17;1667390;84;20994;-54
2022/02/19 09:16:04;;;;;;;7.62;5.30;;;;;;;8.55;55.29;93774.39;1685866;83;21451;-52
2022/02/19 09:18:32;;;;;;;9.85;6.17;;;;;;;8.58;55.05;93763.88;1679311;83;21162;-52
2022/02/19 09:20:59;;;;;;;17.57;8.73;;;;;;;8.62;55.00;93771.33;1679230;83;20969;-51
2022/02/19 09:23:28;;;;;;;13.93;8.90;;;;;;;8.65;55.24;93782.75;1699725;83;21559;-52
2022/02/19 09:25:54;;;;;;;14.58;8.88;;;;;;;8.65;55.09;93773.16;1653659;83;21009;-51
2022/02/19 09:28:24;;;;;;;13.15;7.53;;;;;;;8.72;54.91;93800.28;1680283;83;21493;-52
2022/02/19 09:30:50;;;;;;;11.38;6.97;;;;;;;8.75;54.70;93785.66;1688223;83;21172;-52
2022/02/19 09:33:16;;;;;;;9.38;7.65;;;;;;;8.78;54.81;93791.59;1705964;83;21805;-52
2022/02/19 09:35:43;;;;;;;11.35;8.53;;;;;;;8.79;54.52;93798.59;1690178;83;21111;-52
2022/02/19 09:38:09;;;;;;;19.02;17.10;;;;;;;8.79;54.52;93788.99;1676208;84;21029;-51
2022/02/19 09:40:36;;;;;;;10.08;7.78;;;;;;;8.81;54.83;93804.37;1682017;83;21028;-51
2022/02/19 09:43:03;;;;;;;8.15;6.80;;;;;;;8.82;54.78;93797.67;1693335;83;21792;-51
2022/02/19 09:45:30;;;;;;;12.37;6.62;;;;;;;8.85;54.56;93807.75;1679475;83;20969;-53
2022/02/19 09:47:58;;;;;;;11.70;8.83;;;;;;;8.82;54.70;93800.41;1697440;83;21060;-53
2022/02/19 09:50:26;;;;;;;10.58;6.05;;;;;;;8.78;54.94;93792.95;1703691;83;21705;-52
2022/02/19 09:52:53;;;;;;;9.20;6.95;;;;;;;8.79;54.85;93805.45;1697409;83;21007;-53
2022/02/19 09:55:22;;;;;;;11.95;8.78;;;;;;;8.86;54.74;93807.90;1692893;83;21133;-51
2022/02/19 09:57:48;;;;;;;7.20;6.50;;;;;;;8.89;54.95;93810.47;1677520;83;21012;-51
2022/02/19 10:00:29;;;;;;;11.10;8.63;;;;;;;8.90;54.77;93821.59;1695649;83;21092;-54
2022/02/19 10:02:55;;;;;;;10.35;7.83;;;;;;;8.97;54.78;93815.03;1691907;83;21546;-50
2022/02/19 10:05:24;;;;;;;7.50;5.65;;;;;;;9.08;54.27;93829.80;1685275;83;21094;-52
2022/02/19 10:08:03;;;;;;;23.05;11.12;;;;;;;9.19;53.82;93823.23;1680839;84;21022;-53
2022/02/19 10:10:30;;;;;;;9.40;6.50;;;;;;;9.32;53.89;93823.05;1694413;83;21011;-51
2022/02/19 10:12:58;;;;;;;7.20;5.47;;;;;;;9.35;53.45;93832.51;1700193;83;21000;-53
2022/02/19 10:15:47;;;;;;;6.53;5.00;;;;;;;9.40;53.32;93824.27;1666375;84;21543;-51
2022/02/19 10:18:26;;;;;;;10.55;9.50;;;;;;;9.50;53.14;93829.88;1712503;83;21432;-52
2022/02/19 10:20:56;;;;;;;25.77;23.57;;;;;;;9.84;52.80;93821.95;1712977;83;21152;-52
2022/02/19 10:23:23;;;;;;;11.33;10.20;;;;;;;10.16;52.00;93813.61;1668311;83;21488;-53
2022/02/19 10:26:03;;;;;;;15.13;13.60;;;;;;;10.34;51.61;93810.75;1707711;83;21075;-51
2022/02/19 10:28:31;;;;;;;16.77;11.22;;;;;;;10.48;51.03;93811.40;1655056;84;20991;-54
2022/02/19 10:31:15;;;;;;;17.27;15.43;;;;;;;10.47;50.89;93806.53;1682818;83;21495;-51
2022/02/19 10:33:43;;;;;;;15.38;13.78;;;;;;;10.41;50.57;93814.52;1682580;83;21211;-53
2022/02/19 10:36:15;;;;;;;25.85;23.05;;;;;;;10.43;50.68;93815.58;1670881;84;21017;-52
2022/02/19 10:38:59;;;;;;;7.53;6.77;;;;;;;10.43;50.47;93810.68;1686217;83;21519;-52
2022/02/19 10:41:39;;;;;;;14.38;12.95;;;;;;;10.38;50.64;93806.58;1662177;83;21508;-49
2022/02/19 10:44:25;;;;;;;7.17;6.42;;;;;;;10.36;50.90;93806.92;1692378;83;21121;-56
2022/02/19 10:46:54;;;;;;;4.33;3.92;;;;;;;10.39;50.87;93803.97;1657275;83;21151;-59
2022/02/19 10:49:23;;;;;;;7.65;4.60;;;;;;;10.51;50.48;93803.61;1708773;83;20972;-52
2022/02/19 10:51:49;;;;;;;4.40;3.98;;;;;;;10.73;50.29;93805.58;1673748;83;21068;-53
2022/02/19 10:54:21;;;;;;;4.42;4.03;;;;;;;11.14;49.77;93812.86;1688518;83;21480;-51
2022/02/19 10:56:48;;;;;;;7.75;5.58;;;;;;;11.42;48.60;93810.59;1701197;83;21181;-52
2022/02/19 10:59:18;;;;;;;6.05;4.45;;;;;;;11.57;48.36;93810.76;1705157;83;21166;-53
2022/02/19 11:01:51;;;;;;;5.30;3.75;;;;;;;12.30;47.07;93804.49;1701039;83;21092;-52
2022/02/19 11:04:21;;;;;;;4.90;4.00;;;;;;;12.98;45.25;93815.31;1675126;83;21234;-54
2022/02/19 11:06:49;;;;;;;5.03;3.70;;;;;;;13.49;44.54;93815.37;1673784;83;21208;-53
2022/02/19 11:09:16;;;;;;;3.75;2.70;;;;;;;14.04;44.07;93818.61;1698709;83;21080;-53
2022/02/19 11:11:45;;;;;;;2.42;2.10;;;;;;;14.89;41.73;93817.54;1683891;83;21182;-53
2022/02/19 11:14:15;;;;;;;4.30;3.75;;;;;;;15.28;40.11;93815.67;1693531;83;21004;-53
2022/02/19 11:16:42;;;;;;;3.92;3.45;;;;;;;15.46;40.52;93805.55;1699337;83;21017;-54
2022/02/19 11:19:10;;;;;;;3.20;2.40;;;;;;;15.97;39.92;93825.14;1702797;83;21131;-54
2022/02/19 11:21:37;;;;;;;3.15;2.42;;;;;;;16.66;38.06;93820.69;1701675;83;21046;-53
2022/02/19 11:24:09;;;;;;;3.92;2.35;;;;;;;17.17;36.94;93825.59;1712901;83;21130;-53
2022/02/19 11:26:37;;;;;;;2.92;2.05;;;;;;;17.34;36.29;93826.31;1713046;83;21011;-53
2022/02/19 11:29:19;;;;;;;2.25;1.82;;;;;;;17.31;36.25;93814.80;1687298;83;21150;-53
2022/02/19 11:31:46;;;;;;;;;;;;;;;17.07;36.32;93823.00;1700056;83;21024;-58
2022/02/19 11:34:12;;;;;;;8.00;2.70;;;;;;;16.70;37.23;93822.60;1682700;83;20114;-53
2022/02/19 11:36:40;;;;;;;3.45;2.35;;;;;;;16.87;37.25;93819.89;1689992;83;21193;-53
2022/02/19 11:39:06;;;;;;;4.20;2.42;;;;;;;17.11;36.56;93833.20;1629491;84;21100;-53
2022/02/19 11:41:40;;;;;;;2.77;2.02;;;;;;;17.02;36.27;93832.09;1672972;83;21099;-52
2022/02/19 11:44:22;;;;;;;2.17;1.92;;;;;;;16.89;36.54;93841.63;1698395;83;21084;-53
2022/02/19 11:46:52;;;;;;;3.65;2.37;;;;;;;17.11;36.33;93826.27;1697503;83;22197;-52
2022/02/19 11:49:23;;;;;;;6.35;2.62;;;;;;;17.22;36.36;93823.42;1682886;83;21952;-52
2022/02/19 11:52:15;;;;;;;2.92;2.30;;;;;;;16.99;36.63;93831.11;1688394;83;21611;-51
2022/02/19 11:54:41;;;;;;;2.87;2.15;;;;;;;16.35;36.76;93830.73;1701030;83;21008;-52
2022/02/19 11:57:21;;;;;;;3.02;2.22;;;;;;;15.45;38.67;93821.28;1682824;83;21011;-52